createdAt,value
2017-04-30T00:01:20.196Z,78.20
2017-04-30T00:03:49.264Z,78.90
2017-04-30T00:06:18.314Z,78.80
2017-04-30T00:08:47.403Z,79.00
2017-04-30T00:11:16.467Z,78.80
2017-04-30T00:13:46.333Z,78.60
2017-04-30T00:16:15.363Z,76.40
2017-04-30T00:18:44.468Z,78.10
2017-04-30T00:21:13.519Z,77.80
2017-04-30T00:23:42.913Z,76.70
2017-04-30T00:26:11.987Z,77.70
2017-04-30T00:28:41.779Z,77.60
2017-04-30T00:31:11.625Z,78.30
2017-04-30T00:33:40.687Z,77.20
2017-04-30T00:36:10.516Z,78.20
2017-04-30T00:38:40.312Z,78.00
2017-04-30T00:41:10.682Z,76.70
2017-04-30T00:43:39.757Z,75.60
2017-04-30T00:46:09.589Z,75.30
2017-04-30T00:48:38.667Z,74.80
2017-04-30T00:51:07.754Z,76.80
2017-04-30T00:53:37.554Z,76.40
2017-04-30T00:56:07.389Z,76.80
2017-04-30T00:58:36.489Z,77.10
2017-04-30T01:01:05.541Z,75.50
2017-04-30T01:03:34.632Z,74.90
2017-04-30T01:06:03.752Z,74.00
2017-04-30T01:08:33.571Z,76.90
2017-04-30T01:11:03.412Z,77.90
2017-04-30T01:13:32.458Z,77.00
2017-04-30T01:16:01.821Z,77.40
2017-04-30T01:18:30.919Z,76.40
2017-04-30T01:20:59.963Z,76.80
2017-04-30T01:23:29.030Z,74.00
2017-04-30T01:25:58.102Z,75.80
2017-04-30T01:28:27.175Z,76.80
2017-04-30T01:30:56.496Z,76.80
2017-04-30T01:33:25.552Z,77.90
2017-04-30T01:35:54.716Z,77.40
2017-04-30T01:38:23.845Z,77.30
2017-04-30T01:40:52.943Z,77.70
2017-04-30T01:43:22.751Z,76.80
2017-04-30T01:45:51.847Z,79.10
2017-04-30T01:48:21.652Z,78.00
2017-04-30T01:50:50.722Z,77.30
2017-04-30T01:53:19.764Z,76.60
2017-04-30T01:55:48.844Z,77.40
2017-04-30T01:58:17.923Z,77.50
2017-04-30T02:00:46.944Z,77.60
2017-04-30T02:03:16.032Z,77.40
2017-04-30T02:05:45.101Z,75.80
2017-04-30T02:08:14.158Z,78.40
2017-04-30T02:10:43.193Z,80.40
2017-04-30T02:13:12.274Z,78.80
2017-04-30T02:15:41.697Z,78.80
2017-04-30T02:18:10.759Z,79.20
2017-04-30T02:20:39.852Z,77.90
2017-04-30T02:23:08.956Z,77.00
2017-04-30T02:25:38.009Z,77.10
2017-04-30T02:28:07.452Z,78.10
2017-04-30T02:30:36.752Z,80.40
2017-04-30T02:33:05.854Z,81.00
2017-04-30T02:35:34.907Z,80.60
2017-04-30T02:38:03.996Z,80.80
2017-04-30T02:40:33.069Z,78.60
2017-04-30T02:43:02.108Z,79.30
2017-04-30T02:45:31.159Z,78.90
2017-04-30T02:48:00.527Z,80.60
2017-04-30T02:50:29.868Z,80.90
2017-04-30T02:52:59.240Z,79.30
2017-04-30T02:55:28.344Z,77.90
2017-04-30T02:57:57.380Z,79.70
2017-04-30T03:00:26.455Z,77.10
2017-04-30T03:02:55.546Z,80.80
2017-04-30T03:05:24.580Z,79.20
2017-04-30T03:07:54.406Z,78.80
2017-04-30T03:10:24.188Z,80.10
2017-04-30T03:12:53.276Z,79.00
2017-04-30T03:15:22.332Z,78.20
2017-04-30T03:17:51.426Z,79.10
2017-04-30T03:20:20.498Z,79.50
2017-04-30T03:22:50.315Z,80.10
2017-04-30T03:25:19.368Z,79.20
2017-04-30T03:27:48.451Z,77.90
2017-04-30T03:30:17.519Z,79.50
2017-04-30T03:32:46.587Z,79.10
2017-04-30T03:35:16.406Z,79.70
2017-04-30T03:37:57.304Z,81.70
2017-04-30T03:40:44.384Z,81.80
2017-04-30T03:43:31.378Z,80.90
2017-04-30T03:46:18.840Z,81.80
2017-04-30T03:49:05.596Z,82.90
2017-04-30T03:51:52.623Z,82.50
2017-04-30T03:54:39.909Z,80.90
2017-04-30T03:57:26.772Z,81.10
2017-04-30T04:00:13.676Z,81.90
2017-04-30T04:03:00.602Z,82.50
2017-04-30T04:05:47.527Z,82.80
2017-04-30T04:08:34.361Z,83.20
2017-04-30T04:11:21.401Z,80.30
2017-04-30T04:14:08.749Z,80.20
2017-04-30T04:16:55.643Z,77.40
2017-04-30T04:19:42.535Z,79.40
2017-04-30T04:22:29.560Z,76.60
2017-04-30T04:25:16.645Z,80.00
2017-04-30T04:28:03.805Z,79.50
2017-04-30T04:30:50.651Z,79.40
2017-04-30T04:33:37.492Z,79.80
2017-04-30T04:36:24.262Z,79.70
2017-04-30T04:39:11.558Z,80.80
2017-04-30T04:41:58.430Z,79.50
2017-04-30T04:44:45.442Z,79.80
2017-04-30T04:47:32.323Z,80.50
2017-04-30T04:50:19.194Z,80.00
2017-04-30T04:53:06.086Z,79.00
2017-04-30T04:55:53.159Z,79.00
2017-04-30T04:58:40.199Z,76.90
2017-04-30T05:01:27.199Z,77.40
2017-04-30T05:04:14.203Z,77.10
2017-04-30T05:07:02.235Z,79.30
2017-04-30T05:09:49.079Z,78.20
2017-04-30T05:12:36.171Z,78.70
2017-04-30T05:15:24.110Z,77.80
2017-04-30T05:18:10.875Z,77.30
2017-04-30T05:20:57.759Z,77.90
2017-04-30T05:23:44.702Z,77.40
2017-04-30T05:26:32.652Z,77.30
2017-04-30T05:29:20.275Z,77.20
2017-04-30T05:32:08.614Z,76.90
2017-04-30T05:34:56.361Z,76.80
2017-04-30T05:37:44.058Z,76.30
2017-04-30T05:40:31.551Z,75.30
2017-04-30T05:43:19.282Z,76.10
2017-04-30T05:46:07.292Z,75.50
2017-04-30T05:48:55.822Z,75.30
2017-04-30T05:51:43.162Z,75.00
2017-04-30T05:54:31.210Z,74.70
2017-04-30T05:57:19.043Z,74.70
2017-04-30T06:00:06.709Z,74.40
2017-04-30T06:02:54.202Z,73.90
2017-04-30T06:05:42.344Z,73.50
2017-04-30T06:08:30.116Z,73.40
2017-04-30T06:11:18.015Z,73.60
2017-04-30T06:14:05.475Z,73.60
2017-04-30T06:16:53.590Z,73.50
2017-04-30T06:19:41.202Z,73.00
2017-04-30T06:22:29.502Z,72.70
2017-04-30T06:25:17.401Z,72.50
2017-04-30T06:28:05.048Z,71.70
2017-04-30T06:30:52.599Z,71.10
2017-04-30T06:33:40.162Z,70.80
2017-04-30T06:36:28.330Z,70.40
2017-04-30T06:39:15.203Z,70.00
2017-04-30T06:42:02.123Z,69.50
2017-04-30T06:44:49.112Z,69.40
2017-04-30T06:47:36.623Z,68.00
2017-04-30T06:50:23.707Z,66.90
2017-04-30T06:53:11.689Z,68.20
2017-04-30T06:55:58.767Z,67.50
2017-04-30T06:58:45.772Z,67.40
2017-04-30T07:01:32.792Z,67.20
2017-04-30T07:04:19.966Z,66.70
2017-04-30T07:07:06.867Z,66.10
2017-04-30T07:09:54.097Z,65.50
2017-04-30T07:12:41.061Z,65.80
2017-04-30T07:15:27.963Z,65.40
2017-04-30T07:18:16.260Z,65.10
2017-04-30T07:21:03.103Z,64.30
2017-04-30T07:23:50.197Z,64.90
2017-04-30T07:26:37.102Z,64.90
2017-04-30T07:29:24.122Z,64.00
2017-04-30T07:32:10.967Z,63.80
2017-04-30T07:34:57.837Z,63.90
2017-04-30T07:37:44.706Z,63.00
2017-04-30T07:40:31.691Z,61.90
2017-04-30T07:43:06.658Z,61.40
2017-04-30T07:45:35.723Z,61.10
2017-04-30T07:48:04.751Z,61.00
2017-04-30T07:50:33.822Z,60.70
2017-04-30T07:53:02.886Z,61.40
2017-04-30T07:55:31.916Z,60.50
2017-04-30T07:58:00.988Z,61.00
2017-04-30T08:00:34.162Z,59.70
2017-04-30T08:03:03.289Z,58.10
2017-04-30T08:05:33.055Z,58.40
2017-04-30T08:08:02.110Z,58.40
2017-04-30T08:10:31.145Z,57.70
2017-04-30T08:13:00.208Z,57.90
2017-04-30T08:15:29.231Z,57.40
2017-04-30T08:17:58.326Z,57.20
2017-04-30T08:20:27.363Z,57.50
2017-04-30T08:22:57.161Z,57.40
2017-04-30T08:25:26.209Z,58.10
2017-04-30T08:27:55.268Z,56.10
2017-04-30T08:30:25.035Z,56.00
2017-04-30T08:32:54.090Z,55.90
2017-04-30T08:35:23.138Z,55.70
2017-04-30T08:37:52.207Z,55.00
2017-04-30T08:40:21.246Z,55.00
2017-04-30T08:42:51.057Z,55.20
2017-04-30T08:45:20.139Z,55.10
2017-04-30T08:47:49.919Z,55.10
2017-04-30T08:50:18.984Z,55.90
2017-04-30T08:52:48.757Z,54.00
2017-04-30T08:55:17.830Z,53.10
2017-04-30T08:57:47.195Z,52.20
2017-04-30T09:00:16.265Z,52.10
2017-04-30T09:02:45.293Z,52.50
2017-04-30T09:05:14.356Z,50.90
2017-04-30T09:07:43.390Z,51.90
2017-04-30T09:10:12.459Z,50.70
2017-04-30T09:12:42.285Z,50.70
2017-04-30T09:15:11.320Z,49.90
2017-04-30T09:17:40.472Z,49.90
2017-04-30T09:20:09.772Z,49.80
2017-04-30T09:22:38.839Z,50.90
2017-04-30T09:25:07.893Z,50.00
2017-04-30T09:27:36.937Z,49.30
2017-04-30T09:30:06.004Z,49.40
2017-04-30T09:32:35.038Z,49.20
2017-04-30T09:35:04.873Z,48.10
2017-04-30T09:37:33.912Z,50.10
2017-04-30T09:40:02.976Z,50.20
2017-04-30T09:42:32.079Z,48.90
2017-04-30T09:45:01.125Z,49.10
2017-04-30T09:47:30.211Z,48.80
2017-04-30T09:49:59.258Z,47.70
2017-04-30T09:52:28.318Z,47.70
2017-04-30T09:54:58.100Z,50.00
2017-04-30T09:57:27.168Z,47.20
2017-04-30T09:59:56.209Z,47.60
2017-04-30T10:02:25.285Z,46.80
2017-04-30T10:04:54.420Z,46.20
2017-04-30T10:07:24.201Z,46.40
2017-04-30T10:09:53.413Z,45.60
2017-04-30T10:12:23.199Z,46.60
2017-04-30T10:14:52.285Z,46.40
2017-04-30T10:17:21.310Z,45.80
2017-04-30T10:19:50.640Z,45.00
2017-04-30T10:22:20.447Z,44.40
2017-04-30T10:24:50.475Z,44.60
2017-04-30T10:27:19.550Z,45.40
2017-04-30T10:29:48.592Z,43.90
2017-04-30T10:32:17.659Z,44.50
2017-04-30T10:34:46.729Z,44.10
2017-04-30T10:37:15.782Z,44.00
2017-04-30T10:39:44.835Z,47.50
2017-04-30T10:42:14.611Z,44.40
2017-04-30T10:44:43.689Z,43.40
2017-04-30T10:47:12.727Z,43.80
2017-04-30T10:49:41.844Z,43.60
2017-04-30T10:52:11.662Z,44.70
2017-04-30T10:54:41.437Z,43.80
2017-04-30T10:57:10.505Z,42.50
2017-04-30T10:59:39.824Z,43.20
2017-04-30T11:02:09.206Z,41.60
2017-04-30T11:04:38.272Z,44.70
2017-04-30T11:07:07.338Z,44.90
2017-04-30T11:09:36.385Z,42.40
2017-04-30T11:12:05.451Z,43.70
2017-04-30T11:14:34.492Z,43.00
2017-04-30T11:17:03.561Z,42.70
2017-04-30T11:19:32.641Z,42.40
2017-04-30T11:22:01.676Z,42.80
2017-04-30T11:24:30.764Z,41.90
2017-04-30T11:27:00.027Z,41.50
2017-04-30T11:29:29.096Z,43.60
2017-04-30T11:31:58.355Z,42.50
2017-04-30T11:34:27.411Z,41.90
2017-04-30T11:36:57.229Z,43.40
2017-04-30T11:39:27.002Z,43.30
2017-04-30T11:41:56.104Z,41.70
2017-04-30T11:44:25.141Z,40.30
2017-04-30T11:46:54.219Z,40.70
2017-04-30T11:49:24.022Z,41.40
2017-04-30T11:51:53.065Z,41.50
2017-04-30T11:54:22.130Z,41.80
2017-04-30T11:56:51.938Z,39.20
2017-04-30T11:59:21.702Z,39.20
2017-04-30T12:01:50.801Z,39.00
2017-04-30T12:04:19.839Z,39.50
2017-04-30T12:06:49.657Z,39.50
2017-04-30T12:09:19.440Z,39.20
2017-04-30T12:11:48.794Z,39.60
2017-04-30T12:14:17.823Z,41.20
2017-04-30T12:16:46.898Z,38.80
2017-04-30T12:19:15.923Z,36.30
2017-04-30T12:21:45.045Z,36.10
2017-04-30T12:24:14.876Z,37.10
2017-04-30T12:26:43.946Z,39.90
2017-04-30T12:29:13.161Z,35.80
2017-04-30T12:31:42.940Z,36.30
2017-04-30T12:34:12.019Z,35.40
2017-04-30T12:36:41.081Z,35.00
2017-04-30T12:39:10.153Z,34.30
2017-04-30T12:41:39.978Z,35.40
2017-04-30T12:44:09.016Z,32.50
2017-04-30T12:46:38.097Z,33.50
2017-04-30T12:49:07.170Z,31.20
2017-04-30T12:51:36.288Z,30.50
2017-04-30T12:54:05.337Z,34.10
2017-04-30T12:56:34.398Z,31.10
2017-04-30T12:59:03.505Z,32.40
2017-04-30T13:01:32.544Z,32.70
2017-04-30T13:04:02.349Z,31.10
2017-04-30T13:06:31.439Z,30.60
2017-04-30T13:09:01.251Z,33.40
2017-04-30T13:11:30.351Z,30.20
2017-04-30T13:13:59.445Z,31.10
2017-04-30T13:16:29.259Z,29.00
2017-04-30T13:18:58.315Z,31.80
2017-04-30T13:21:27.396Z,29.70
2017-04-30T13:23:56.424Z,29.80
2017-04-30T13:26:26.273Z,30.00
2017-04-30T13:28:56.042Z,30.70
2017-04-30T13:31:25.135Z,29.20
2017-04-30T13:33:54.183Z,29.90
2017-04-30T13:36:23.252Z,29.80
2017-04-30T13:38:53.040Z,28.80
2017-04-30T13:41:22.103Z,29.50
2017-04-30T13:43:51.164Z,28.50
2017-04-30T13:46:20.976Z,28.30
2017-04-30T13:48:50.760Z,28.00
2017-04-30T13:51:19.837Z,27.70
2017-04-30T13:53:48.884Z,28.30
2017-04-30T13:56:18.684Z,27.80
2017-04-30T13:58:48.503Z,27.10
2017-04-30T14:01:18.281Z,28.20
2017-04-30T14:03:47.572Z,28.00
2017-04-30T14:06:16.609Z,26.90
2017-04-30T14:08:46.428Z,27.00
2017-04-30T14:11:16.202Z,24.50
2017-04-30T14:13:45.298Z,25.20
2017-04-30T14:16:14.336Z,25.00
2017-04-30T14:18:44.168Z,24.80
2017-04-30T14:21:13.311Z,27.00
2017-04-30T14:23:42.396Z,26.70
2017-04-30T14:26:11.432Z,25.20
2017-04-30T14:28:41.252Z,24.90
2017-04-30T14:31:10.279Z,25.60
2017-04-30T14:33:39.473Z,26.40
2017-04-30T14:36:08.505Z,25.50
2017-04-30T14:38:37.607Z,26.60
2017-04-30T14:41:06.648Z,24.60
2017-04-30T14:43:35.679Z,27.80
2017-04-30T14:46:04.768Z,25.90
2017-04-30T14:48:33.801Z,24.30
2017-04-30T14:51:03.607Z,26.70
2017-04-30T14:53:32.692Z,25.00
2017-04-30T14:56:01.728Z,25.20
2017-04-30T14:58:30.801Z,25.90
2017-04-30T15:01:00.628Z,25.20
2017-04-30T15:03:29.716Z,25.60
2017-04-30T15:05:59.493Z,24.40
2017-04-30T15:08:28.581Z,25.90
2017-04-30T15:10:57.614Z,26.50
2017-04-30T15:13:27.411Z,26.00
2017-04-30T15:15:56.487Z,26.30
2017-04-30T15:18:25.523Z,25.70
2017-04-30T15:20:55.399Z,27.30
2017-04-30T15:23:24.441Z,26.00
2017-04-30T15:25:53.501Z,25.90
2017-04-30T15:28:22.576Z,25.00
2017-04-30T15:30:51.616Z,25.60
2017-04-30T15:33:21.731Z,26.80
2017-04-30T15:35:51.498Z,27.30
2017-04-30T15:38:20.571Z,27.80
2017-04-30T15:40:49.607Z,28.90
2017-04-30T15:43:18.674Z,28.70
2017-04-30T15:45:47.703Z,28.10
2017-04-30T15:48:16.796Z,28.20
2017-04-30T15:50:45.833Z,27.30
2017-04-30T15:53:14.916Z,28.30
2017-04-30T15:55:44.691Z,26.50
2017-04-30T15:58:13.761Z,26.70
2017-04-30T16:00:42.828Z,25.70
2017-04-30T16:03:11.923Z,27.30
2017-04-30T16:05:40.971Z,28.80
2017-04-30T16:08:10.049Z,29.10
2017-04-30T16:10:39.113Z,27.80
2017-04-30T16:13:08.188Z,27.40
2017-04-30T16:15:37.978Z,28.40
2017-04-30T16:18:07.021Z,29.00
2017-04-30T16:20:36.094Z,28.60
2017-04-30T16:23:05.873Z,28.60
2017-04-30T16:25:34.947Z,27.10
2017-04-30T16:28:03.980Z,27.50
2017-04-30T16:30:33.060Z,26.50
2017-04-30T16:33:02.123Z,26.70
2017-04-30T16:35:31.208Z,26.20
2017-04-30T16:38:00.263Z,27.00
2017-04-30T16:40:29.372Z,27.70
2017-04-30T16:42:58.435Z,28.60
2017-04-30T16:45:27.483Z,26.10
2017-04-30T16:47:56.543Z,25.90
2017-04-30T16:50:25.796Z,24.70
2017-04-30T16:52:54.931Z,23.10
2017-04-30T16:55:24.079Z,24.20
2017-04-30T16:57:53.160Z,24.20
2017-04-30T17:00:23.189Z,23.70
2017-04-30T17:02:52.260Z,24.30
2017-04-30T17:05:22.044Z,24.90
2017-04-30T17:07:51.107Z,22.10
2017-04-30T17:10:20.203Z,21.70
2017-04-30T17:12:49.264Z,21.30
2017-04-30T17:15:19.072Z,22.40
2017-04-30T17:17:48.849Z,20.90
2017-04-30T17:20:17.911Z,19.90
2017-04-30T17:22:46.954Z,19.70
2017-04-30T17:25:16.075Z,19.90
2017-04-30T17:27:45.880Z,20.10
2017-04-30T17:30:14.926Z,19.80
2017-04-30T17:32:43.992Z,19.40
2017-04-30T17:35:13.775Z,19.10
2017-04-30T17:37:42.826Z,19.30
2017-04-30T17:40:11.912Z,19.60
2017-04-30T17:42:40.953Z,20.10
2017-04-30T17:45:10.017Z,23.00
2017-04-30T17:47:39.064Z,24.50
2017-04-30T17:50:08.122Z,25.60
2017-04-30T17:52:38.383Z,26.60
2017-04-30T17:55:08.161Z,28.60
2017-04-30T17:57:37.340Z,28.80
2017-04-30T18:00:06.389Z,30.00
2017-04-30T18:02:35.479Z,30.30
2017-04-30T18:05:04.528Z,31.30
2017-04-30T18:07:33.591Z,30.60
2017-04-30T18:10:02.664Z,32.00
2017-04-30T18:12:31.696Z,31.60
2017-04-30T18:15:00.763Z,32.30
2017-04-30T18:17:29.824Z,34.60
2017-04-30T18:19:58.908Z,35.60
2017-04-30T18:22:28.059Z,34.60
2017-04-30T18:24:57.160Z,36.80
2017-04-30T18:27:26.240Z,36.40
2017-04-30T18:29:55.276Z,35.70
2017-04-30T18:32:24.347Z,36.30
2017-04-30T18:34:54.148Z,36.80
2017-04-30T18:37:24.176Z,37.10
2017-04-30T18:39:53.948Z,37.40
2017-04-30T18:42:23.027Z,38.30
2017-04-30T18:44:52.054Z,37.20
2017-04-30T18:47:21.124Z,38.70
2017-04-30T18:49:51.150Z,38.90
2017-04-30T18:52:20.492Z,39.40
2017-04-30T18:54:50.307Z,38.40
2017-04-30T18:57:20.080Z,39.30
2017-04-30T18:59:49.156Z,39.20
2017-04-30T19:02:18.193Z,40.80
2017-04-30T19:04:47.263Z,40.40
2017-04-30T19:07:16.283Z,41.20
2017-04-30T19:09:46.093Z,41.30
2017-04-30T19:12:15.916Z,41.50
2017-04-30T19:14:45.683Z,41.70
2017-04-30T19:17:14.761Z,42.00
2017-04-30T19:19:43.884Z,42.60
2017-04-30T19:22:12.918Z,43.00
2017-04-30T19:24:42.731Z,43.40
2017-04-30T19:27:12.498Z,44.20
2017-04-30T19:29:41.581Z,44.30
2017-04-30T19:32:10.631Z,44.70
2017-04-30T19:34:40.444Z,44.50
2017-04-30T19:37:10.216Z,44.70
2017-04-30T19:39:39.276Z,45.80
2017-04-30T19:42:08.343Z,45.70
2017-04-30T19:44:38.127Z,46.00
2017-04-30T19:47:07.198Z,46.50
2017-04-30T19:49:36.235Z,46.70
2017-04-30T19:52:05.563Z,46.90
2017-04-30T19:54:34.603Z,48.60
2017-04-30T19:57:03.677Z,48.40
2017-04-30T19:59:32.748Z,48.90
2017-04-30T20:02:01.795Z,49.00
2017-04-30T20:04:30.871Z,49.30
2017-04-30T20:06:59.920Z,49.60
2017-04-30T20:09:30.053Z,49.80
2017-04-30T20:11:59.855Z,50.00
2017-04-30T20:14:29.627Z,50.30
2017-04-30T20:16:58.688Z,50.70
2017-04-30T20:19:27.725Z,50.80
2017-04-30T20:21:56.808Z,50.90
2017-04-30T20:24:25.845Z,51.10
2017-04-30T20:26:55.655Z,51.00
2017-04-30T20:29:25.446Z,51.50
2017-04-30T20:31:54.515Z,51.10
2017-04-30T20:34:23.580Z,51.70
2017-04-30T20:36:52.653Z,51.30
2017-04-30T20:39:21.718Z,51.30
2017-04-30T20:41:50.752Z,51.40
2017-04-30T20:44:20.571Z,51.80
2017-04-30T20:46:50.348Z,52.10
2017-04-30T20:49:19.428Z,52.40
2017-04-30T20:51:48.520Z,52.70
2017-04-30T20:54:17.880Z,52.00
2017-04-30T20:56:46.915Z,52.50
2017-04-30T20:59:16.000Z,53.00
2017-04-30T21:01:45.376Z,54.30
2017-04-30T21:04:14.467Z,53.20
2017-04-30T21:06:43.772Z,53.70
2017-04-30T21:09:12.804Z,53.70
2017-04-30T21:11:41.879Z,53.90
2017-04-30T21:14:10.910Z,54.00
2017-04-30T21:16:40.265Z,53.70
2017-04-30T21:19:09.332Z,54.00
2017-04-30T21:21:39.131Z,54.30
2017-04-30T21:24:08.199Z,54.50
2017-04-30T21:26:37.283Z,54.60
2017-04-30T21:29:06.325Z,54.80
2017-04-30T21:31:35.389Z,54.70
2017-04-30T21:34:04.480Z,54.50
2017-04-30T21:36:33.570Z,55.00
2017-04-30T21:39:02.612Z,54.90
2017-04-30T21:41:31.696Z,54.80
2017-04-30T21:44:00.754Z,55.10
2017-04-30T21:46:29.795Z,55.20
2017-04-30T21:48:58.864Z,55.60
2017-04-30T21:51:27.903Z,55.10
2017-04-30T21:53:57.724Z,55.20
2017-04-30T21:56:27.027Z,55.20
2017-04-30T21:58:56.104Z,55.30
2017-04-30T22:01:25.925Z,55.60
2017-04-30T22:03:54.979Z,55.90
2017-04-30T22:06:24.332Z,56.10
2017-04-30T22:08:53.376Z,56.10
2017-04-30T22:11:22.449Z,56.10
2017-04-30T22:13:51.531Z,56.30
2017-04-30T22:16:20.574Z,56.20
2017-04-30T22:18:49.640Z,56.50
2017-04-30T22:21:18.709Z,56.30
2017-04-30T22:23:47.744Z,56.60
2017-04-30T22:26:16.808Z,56.30
2017-04-30T22:28:45.853Z,56.90
2017-04-30T22:31:14.910Z,57.00
2017-04-30T22:33:43.943Z,56.60
2017-04-30T22:36:13.019Z,56.60
2017-04-30T22:38:42.088Z,56.70
2017-04-30T22:41:11.123Z,56.50
2017-04-30T22:43:40.197Z,56.70
2017-04-30T22:46:09.240Z,56.50
2017-04-30T22:48:38.320Z,56.70
2017-04-30T22:51:07.389Z,56.50
2017-04-30T22:53:36.432Z,56.60
2017-04-30T22:56:06.233Z,56.60
2017-04-30T22:58:35.286Z,56.60
2017-04-30T23:01:04.363Z,56.40
2017-04-30T23:03:33.394Z,56.60
2017-04-30T23:06:02.450Z,56.30
2017-04-30T23:08:31.529Z,57.10
2017-04-30T23:11:01.298Z,56.40
2017-04-30T23:13:30.368Z,56.80
2017-04-30T23:15:59.407Z,56.20
2017-04-30T23:18:28.519Z,56.90
2017-04-30T23:20:58.286Z,56.30
2017-04-30T23:23:27.364Z,57.00
2017-04-30T23:25:56.396Z,56.40
2017-04-30T23:28:25.468Z,56.30
2017-04-30T23:30:54.527Z,56.90
2017-04-30T23:33:23.924Z,56.40
2017-04-30T23:35:53.731Z,56.60
2017-04-30T23:38:23.551Z,56.70
2017-04-30T23:40:53.315Z,57.30
2017-04-30T23:43:22.379Z,57.00
2017-04-30T23:45:51.415Z,57.50
2017-04-30T23:48:20.509Z,56.90
2017-04-30T23:50:49.554Z,56.50
2017-04-30T23:53:18.619Z,56.80
2017-04-30T23:55:47.664Z,57.10
2017-04-30T23:58:16.720Z,57.60
